Terminal Aerodrome Forecast
Issued by NWS

Home | Current Version | Previous Version | Text Only | Print | Product List | Glossary On
Versions: 1 2 3 4 5 6 7 8 9 10 11 12 13 14 15 16 17 18 19 20 21 22 23 24 25 26
000
FTAK31 PAFA 301125
TAFABT
TAF
PABT 301125Z 3012/3112 36006KT P6SM FEW050 SCT100 SCT180
     FM301800 36008KT P6SM VCSH SCT035 BKN050 OVC100
     FM310600 04005KT P6SM VCSH SCT035 BKN050 OVC100=

USA.gov is the U.S. government's official web portal to all federal, state and local government web resources and services.